Time;durP1;ratioP1;P1;durP2;ratioP2;P2;SDS_P1;SDS_P2;PMS_P1;PMS_P2;Temp;Humidity;BMP_temperature;BMP_pressure;BME280_temperature;BME280_humidity;BME280_pressure;Samples;Min_cycle;Max_cycle;Signal;HPM_P1;HPM_P2
2023/01/14 00:01:33;;;;;;;;;17.00;16.33;;;;;8.39;100.00;101564.16;5100227;27;45574;-76
2023/01/14 00:04:00;;;;;;;;;12.00;10.33;;;;;8.30;100.00;101528.75;5081923;27;48540;-76
2023/01/14 00:06:28;;;;;;;;;14.00;11.33;;;;;8.33;100.00;101517.84;5081588;27;45429;-76
2023/01/14 00:08:56;;;;;;;;;7.00;7.00;;;;;8.50;100.00;101534.00;5100549;27;45345;-76
2023/01/14 00:14:06;;;;;;;;;11.00;9.00;;;;;8.45;100.00;101499.97;5099785;27;45280;-76
2023/01/14 00:16:31;;;;;;;;;13.33;13.00;;;;;8.58;100.00;101504.19;5100167;27;45361;-76
2023/01/14 00:18:56;;;;;;;;;9.00;8.00;;;;;8.65;100.00;101501.81;5099014;27;45365;-76
2023/01/14 00:21:22;;;;;;;;;11.33;9.00;;;;;8.71;100.00;101490.66;5100330;27;46012;-76
2023/01/14 00:23:47;;;;;;;;;6.00;6.00;;;;;8.66;100.00;101475.19;5099865;27;46295;-76
2023/01/14 00:26:15;;;;;;;;;8.33;6.67;;;;;8.77;100.00;101491.88;5098914;27;45317;-75
2023/01/14 00:28:44;;;;;;;;;11.00;8.67;;;;;8.83;100.00;101484.19;5099950;27;45314;-77
2023/01/14 00:31:12;;;;;;;;;9.33;7.00;;;;;8.84;100.00;101482.38;5081737;27;46373;-76
2023/01/14 00:33:39;;;;;;;;;13.67;9.00;;;;;8.88;100.00;101473.16;5099453;27;45306;-76
2023/01/14 00:36:07;;;;;;;;;10.00;7.00;;;;;8.92;100.00;101468.41;5099932;27;45461;-76
2023/01/14 00:38:33;;;;;;;;;8.33;7.67;;;;;8.97;100.00;101476.75;5099897;27;45305;-76
2023/01/14 00:41:07;;;;;;;;;6.00;6.00;;;;;9.00;100.00;101478.25;5099689;27;45285;-76
2023/01/14 00:43:36;;;;;;;;;8.67;8.00;;;;;8.94;100.00;101455.81;5099598;27;46248;-76
2023/01/14 00:46:05;;;;;;;;;8.33;7.67;;;;;8.96;100.00;101456.53;5099681;27;45334;-76
2023/01/14 00:48:34;;;;;;;;;9.33;7.67;;;;;9.03;100.00;101467.38;5099714;27;45282;-76
2023/01/14 00:51:00;;;;;;;;;10.00;9.00;;;;;9.03;100.00;101462.06;5081443;27;46584;-76
2023/01/14 00:53:27;;;;;;;;;8.33;8.33;;;;;9.02;100.00;101457.75;5099536;27;45351;-76
2023/01/14 00:55:52;;;;;;;;;7.67;6.33;;;;;8.96;100.00;101440.59;5099419;27;45240;-76
2023/01/14 00:58:18;;;;;;;;;12.67;8.33;;;;;9.03;100.00;101438.19;5099655;27;45317;-76
2023/01/14 01:00:44;;;;;;;;;10.00;7.00;;;;;9.07;100.00;101447.53;5099673;27;45489;-76
2023/01/14 01:03:10;;;;;;;;;7.00;6.67;;;;;9.03;100.00;101438.19;5099340;27;45822;-77
2023/01/14 01:05:36;;;;;;;;;7.00;6.00;;;;;9.02;100.00;101431.22;5099367;27;45337;-76
2023/01/14 01:08:06;;;;;;;;;7.00;7.00;;;;;9.08;100.00;101425.34;5099356;27;45404;-77
2023/01/14 01:10:35;;;;;;;;;6.67;6.33;;;;;9.09;100.00;101424.34;5099011;27;45492;-77
2023/01/14 01:13:04;;;;;;;;;6.00;5.00;;;;;9.01;100.00;101405.72;5097974;27;48486;-77
2023/01/14 01:15:34;;;;;;;;;5.00;5.00;;;;;9.07;100.00;101415.72;5099071;27;45341;-76
2023/01/14 01:18:00;;;;;;;;;6.67;6.00;;;;;9.11;100.00;101422.41;5098212;27;45416;-77
2023/01/14 01:20:26;;;;;;;;;5.67;5.00;;;;;9.08;100.00;101407.63;5099158;27;45319;-77
2023/01/14 01:22:51;;;;;;;;;6.00;6.00;;;;;9.20;100.00;101426.81;5080885;27;48185;-77
2023/01/14 01:25:17;;;;;;;;;7.33;7.00;;;;;9.11;100.00;101403.84;5099081;27;45547;-77
2023/01/14 01:27:42;;;;;;;;;8.00;7.00;;;;;9.16;100.00;101401.56;5099373;27;45282;-77
2023/01/14 01:30:08;;;;;;;;;5.00;5.00;;;;;9.29;100.00;101418.94;5099558;27;45516;-76
2023/01/14 01:32:34;;;;;;;;;6.00;5.00;;;;;9.21;100.00;101398.47;5102676;27;45360;-77
2023/01/14 01:34:59;;;;;;;;;6.67;6.00;;;;;9.28;100.00;101406.66;5102377;27;45321;-76
2023/01/14 01:37:26;;;;;;;;;5.67;5.67;;;;;9.27;100.00;101411.13;5102961;27;45706;-76
2023/01/14 01:39:51;;;;;;;;;5.67;5.67;;;;;9.27;100.00;101395.22;5102618;27;45468;-77
2023/01/14 01:42:16;;;;;;;;;4.00;4.00;;;;;9.24;100.00;101392.03;5101169;27;47354;-77
2023/01/14 01:44:42;;;;;;;;;8.33;7.00;;;;;9.36;100.00;101409.41;5101046;27;46012;-77
2023/01/14 01:47:08;;;;;;;;;6.67;6.00;;;;;9.40;100.00;101402.00;5102822;27;45413;-77
2023/01/14 01:49:35;;;;;;;;;9.33;9.33;;;;;9.42;100.00;101398.19;5102241;27;45419;-77
2023/01/14 01:52:13;;;;;;;;;7.67;5.67;;;;;9.43;100.00;101393.72;5102344;27;45314;-76
2023/01/14 01:54:42;;;;;;;;;6.33;6.33;;;;;9.50;100.00;101391.28;5102384;27;45644;-76
2023/01/14 01:57:11;;;;;;;;;7.67;6.33;;;;;9.53;100.00;101386.53;5102256;27;45374;-76
2023/01/14 01:59:41;;;;;;;;;5.67;5.33;;;;;9.53;100.00;101389.19;5102172;27;45439;-77
2023/01/14 02:02:08;;;;;;;;;10.00;8.67;;;;;9.53;100.00;101383.03;5083824;27;47494;-77
2023/01/14 02:04:33;;;;;;;;;8.00;8.00;;;;;9.58;100.00;101378.94;5102281;27;45280;-76
2023/01/14 02:06:59;;;;;;;;;11.67;9.33;;;;;9.62;100.00;101376.81;5102450;27;45309;-76
2023/01/14 02:09:24;;;;;;;;;7.00;7.00;;;;;9.53;100.00;101353.84;5102083;27;45459;-77
2023/01/14 02:12:15;;;;;;;;;5.33;5.33;;;;;9.58;100.00;101360.34;5101994;27;45366;-76
2023/01/14 02:14:40;;;;;;;;;9.33;8.33;;;;;9.68;100.00;101362.09;5102115;27;45349;-77
2023/01/14 02:17:37;;;;;;;;;6.67;6.67;;;;;9.76;100.00;101356.03;5102288;27;45284;-76
2023/01/14 02:20:26;;;;;;;;;6.33;6.33;;;;;9.78;100.00;101356.69;5092846;27;45368;-76
2023/01/14 02:23:26;;;;;;;;;8.33;8.33;;;;;9.80;100.00;101352.06;5102224;27;45317;-77
2023/01/14 02:26:05;;;;;;;;;7.33;7.33;;;;;9.83;100.00;101344.66;5083451;27;45405;-77
2023/01/14 02:28:40;;;;;;;;;6.00;6.00;;;;;9.85;100.00;101339.19;5101572;27;45306;-77
2023/01/14 02:31:25;;;;;;;;;10.67;9.00;;;;;9.88;100.00;101330.06;5101866;27;45388;-76
2023/01/14 02:33:50;;;;;;;;;7.00;7.00;;;;;9.88;100.00;101333.56;5101480;27;45312;-76
2023/01/14 02:36:31;;;;;;;;;7.00;5.67;;;;;9.85;100.00;101309.97;5101978;27;45335;-77
2023/01/14 02:39:15;;;;;;;;;6.00;6.00;;;;;9.88;100.00;101307.03;5102110;27;45315;-76
2023/01/14 02:44:51;;;;;;;;;6.33;6.33;;;;;9.92;100.00;101308.38;5086260;27;45466;-76
2023/01/14 02:47:21;;;;;;;;;8.00;6.33;;;;;9.60;100.00;101262.84;5083295;27;45300;-76
2023/01/14 02:49:50;;;;;;;;;6.00;6.00;;;;;9.90;100.00;101294.41;5101626;27;45357;-76
2023/01/14 02:52:17;;;;;;;;;6.00;5.67;;;;;9.93;100.00;101293.25;5101605;27;45366;-77
2023/01/14 02:54:54;;;;;;;;;5.00;5.00;;;;;10.02;100.00;101296.78;5101305;27;45412;-76
2023/01/14 02:57:35;;;;;;;;;8.00;6.67;;;;;9.98;100.00;101286.50;5101420;27;45341;-76
2023/01/14 03:00:21;;;;;;;;;4.33;4.33;;;;;10.08;100.00;101291.69;5101676;27;45300;-77
2023/01/14 03:02:49;;;;;;;;;6.00;4.00;;;;;10.15;100.00;101297.19;5101269;27;45603;-77
2023/01/14 03:05:30;;;;;;;;;5.00;5.00;;;;;10.17;100.00;101281.09;5101447;27;46121;-76
2023/01/14 03:08:09;;;;;;;;;5.33;4.67;;;;;10.10;100.00;101268.47;5100977;27;45397;-76
2023/01/14 03:10:43;;;;;;;;;4.00;4.00;;;;;10.19;100.00;101279.13;5101130;27;45225;-77
2023/01/14 03:13:11;;;;;;;;;5.67;4.00;;;;;10.26;100.00;101276.69;5101325;27;45576;-76
2023/01/14 03:15:46;;;;;;;;;4.00;4.00;;;;;10.27;100.00;101267.72;5100954;27;46208;-76
2023/01/14 03:18:33;;;;;;;;;3.67;3.67;;;;;10.30;100.00;101270.06;5101166;27;45347;-77
2023/01/14 03:21:04;;;;;;;;;3.00;3.00;;;;;10.26;100.00;101263.41;5101010;27;45382;-77
2023/01/14 03:23:36;;;;;;;;;2.00;2.00;;;;;10.21;100.00;101250.59;5100808;27;45406;-77
2023/01/14 03:26:08;;;;;;;;;2.33;2.33;;;;;10.33;100.00;101261.78;5100938;27;46257;-76
2023/01/14 03:28:38;;;;;;;;;3.00;3.00;;;;;10.28;100.00;101242.81;5100673;27;45792;-76
2023/01/14 03:31:08;;;;;;;;;2.00;2.00;;;;;10.32;100.00;101252.13;5101292;27;45395;-76
2023/01/14 03:33:39;;;;;;;;;2.00;2.00;;;;;10.40;100.00;101243.34;5100681;27;45549;-77
2023/01/14 03:36:06;;;;;;;;;2.00;2.00;;;;;10.33;100.00;101230.69;5100626;27;46340;-77
2023/01/14 03:38:39;;;;;;;;;1.00;1.00;;;;;10.41;100.00;101232.56;5100465;27;45426;-76
2023/01/14 03:41:09;;;;;;;;;3.00;2.00;;;;;10.45;100.00;101219.78;5100827;27;45457;-78
2023/01/14 03:43:48;;;;;;;;;2.67;1.00;;;;;10.40;100.00;101204.34;5100533;27;45492;-77
2023/01/14 03:46:14;;;;;;;;;3.33;2.33;;;;;10.45;100.00;101211.81;5082073;27;47228;-77
2023/01/14 03:48:40;;;;;;;;;2.00;1.00;;;;;10.43;100.00;101192.53;5100795;27;45605;-77
2023/01/14 03:51:24;;;;;;;;;3.33;3.33;;;;;10.51;100.00;101205.91;5100724;27;45491;-76
2023/01/14 03:54:18;;;;;;;;;1.33;1.33;;;;;10.45;100.00;101170.16;5100452;27;45480;-76
2023/01/14 03:56:52;;;;;;;;;2.00;2.00;;;;;10.50;100.00;101177.63;5100268;27;45265;-77
2023/01/14 03:59:26;;;;;;;;;2.67;1.00;;;;;10.35;100.00;101148.16;5100169;27;45329;-76
2023/01/14 04:01:54;;;;;;;;;3.33;2.00;;;;;10.42;100.00;101165.13;5099257;27;45287;-77
2023/01/14 04:04:23;;;;;;;;;1.33;1.33;;;;;10.46;100.00;101155.03;5081993;27;46474;-77
2023/01/14 04:06:49;;;;;;;;;3.00;3.00;;;;;10.51;100.00;101159.88;5100268;27;45369;-77
2023/01/14 04:09:14;;;;;;;;;1.67;1.67;;;;;10.56;100.00;101168.16;5100291;27;45416;-76
2023/01/14 04:11:40;;;;;;;;;4.00;4.00;;;;;10.56;100.00;101160.19;5098978;27;45346;-76
2023/01/14 04:16:49;;;;;;;;;5.00;3.00;;;;;10.58;100.00;101144.94;5100242;27;45302;-76
2023/01/14 04:19:15;;;;;;;;;3.00;3.00;;;;;10.55;100.00;101137.28;5100128;27;45289;-76
2023/01/14 04:21:40;;;;;;;;;1.00;1.00;;;;;10.49;100.00;101122.84;5099074;27;45369;-76
2023/01/14 04:24:06;;;;;;;;;5.00;3.67;;;;;10.51;100.00;101118.19;5100009;27;45328;-76
2023/01/14 04:26:31;;;;;;;;;4.33;4.33;;;;;10.57;100.00;101120.16;5081614;27;48243;-76
2023/01/14 04:28:57;;;;;;;;;2.00;2.00;;;;;10.60;100.00;101111.06;5098386;27;46242;-76
2023/01/14 04:31:23;;;;;;;;;5.00;3.33;;;;;10.64;100.00;101108.88;5100261;27;45365;-77
2023/01/14 04:33:48;;;;;;;;;5.67;3.00;;;;;10.57;100.00;101092.78;5099570;27;45257;-77
2023/01/14 04:36:13;;;;;;;;;4.00;3.00;;;;;10.57;100.00;101077.63;5099933;27;45489;-76
2023/01/14 04:38:40;;;;;;;;;3.00;3.00;;;;;10.50;100.00;101076.66;5099845;27;45277;-76
2023/01/14 04:41:06;;;;;;;;;3.00;3.00;;;;;10.58;100.00;101083.78;5098686;27;45360;-76
2023/01/14 04:43:31;;;;;;;;;3.33;3.00;;;;;10.58;100.00;101070.50;5099567;27;45277;-76
2023/01/14 04:45:57;;;;;;;;;4.00;3.33;;;;;10.64;100.00;101083.13;5099669;27;45430;-76
2023/01/14 04:48:24;;;;;;;;;5.00;2.67;;;;;10.57;100.00;101064.34;5099547;27;45441;-76
2023/01/14 04:50:50;;;;;;;;;5.00;5.00;;;;;10.68;100.00;101086.28;5100102;27;45676;-76
2023/01/14 04:53:18;;;;;;;;;7.33;3.67;;;;;10.69;100.00;101093.28;5098163;27;46531;-76
2023/01/14 04:55:45;;;;;;;;;3.67;3.33;;;;;10.56;100.00;101067.16;5081162;27;46052;-77
2023/01/14 04:58:14;;;;;;;;;4.33;3.33;;;;;10.73;100.00;101084.81;5099601;27;45299;-77
2023/01/14 05:00:40;;;;;;;;;4.00;4.00;;;;;10.73;100.00;101076.00;5099842;27;45350;-77
2023/01/14 05:03:08;;;;;;;;;3.67;3.00;;;;;10.75;100.00;101067.84;5099419;27;45397;-76
2023/01/14 05:05:35;;;;;;;;;4.00;1.67;;;;;10.72;100.00;101056.53;5099575;27;47381;-76
2023/01/14 05:08:02;;;;;;;;;3.67;3.67;;;;;10.69;100.00;101043.56;5103261;27;45306;-77
2023/01/14 05:10:27;;;;;;;;;1.67;1.67;;;;;10.70;100.00;101039.94;5103010;27;45369;-76
2023/01/14 05:12:56;;;;;;;;;2.67;2.33;;;;;10.70;100.00;101034.63;5102801;27;45417;-76
2023/01/14 05:15:26;;;;;;;;;4.67;3.00;;;;;10.46;100.00;100983.16;5103143;27;47118;-77
2023/01/14 05:17:52;;;;;;;;;3.00;2.00;;;;;10.65;100.00;101007.69;5103224;27;45409;-76
2023/01/14 05:20:17;;;;;;;;;5.00;2.33;;;;;10.67;100.00;101008.38;5103208;27;45530;-76
2023/01/14 05:22:42;;;;;;;;;5.33;5.00;;;;;10.70;100.00;100997.41;5103069;27;45324;-76
2023/01/14 05:25:08;;;;;;;;;0.00;0.00;;;;;10.71;100.00;101000.88;5102928;27;46053;-76
2023/01/14 05:27:34;;;;;;;;;3.00;3.00;;;;;10.76;100.00;101008.34;5103055;27;46458;-76
2023/01/14 05:30:00;;;;;;;;;4.00;2.67;;;;;10.70;100.00;101004.53;5103062;27;45504;-76
2023/01/14 05:32:25;;;;;;;;;3.33;3.33;;;;;10.72;100.00;101015.84;5101773;27;46206;-76
2023/01/14 05:34:50;;;;;;;;;3.67;2.67;;;;;10.74;100.00;101016.50;5102796;27;46297;-76
2023/01/14 05:37:16;;;;;;;;;4.33;3.00;;;;;10.75;100.00;101017.34;5077955;28;45324;-76
2023/01/14 05:39:41;;;;;;;;;1.00;1.00;;;;;10.64;100.00;100994.56;5095930;27;45529;-77
2023/01/14 05:47:34;;;;;;;;;2.00;1.33;;;;;10.59;100.00;100974.66;5102796;27;45279;-78
2023/01/14 05:49:59;;;;;;;;;4.00;2.00;;;;;10.60;100.00;100963.00;5101013;27;45725;-77
2023/01/14 05:52:25;;;;;;;;;1.00;1.00;;;;;10.71;100.00;100971.63;5102758;27;45364;-78
2023/01/14 05:54:50;;;;;;;;;2.33;1.33;;;;;10.66;100.00;100964.19;5102162;27;46194;-77
2023/01/14 05:57:15;;;;;;;;;4.00;1.67;;;;;10.73;100.00;100964.34;5102470;27;45381;-78
2023/01/14 05:59:41;;;;;;;;;3.00;1.67;;;;;10.70;100.00;100957.53;5102337;27;45289;-78
2023/01/14 06:07:37;;;;;;;;;2.33;2.00;;;;;10.66;100.00;100928.81;5102154;27;45507;-78
2023/01/14 06:10:03;;;;;;;;;3.00;2.00;;;;;10.75;100.00;100943.75;5100887;27;45317;-77
2023/01/14 06:12:57;;;;;;;;;0.67;0.33;;;;;10.76;100.00;100939.22;5102181;27;45292;-78
2023/01/14 06:15:19;;;;;;;;;2.00;2.00;;;;;10.67;100.00;100923.31;5101976;27;45367;-78
2023/01/14 06:17:46;;;;;;;;;2.00;2.00;;;;;10.51;100.00;100891.47;5100571;27;45674;-77
2023/01/14 06:20:12;;;;;;;;;1.00;1.00;;;;;10.72;100.00;100926.28;5102536;27;45317;-77
2023/01/14 06:22:38;;;;;;;;;4.33;1.00;;;;;10.64;100.00;100921.00;5101997;27;45331;-76
2023/01/14 06:25:03;;;;;;;;;2.33;1.33;;;;;10.73;100.00;100933.28;5083378;27;48202;-76
2023/01/14 06:27:29;;;;;;;;;2.00;1.00;;;;;10.70;100.00;100928.28;5102004;27;45287;-76
2023/01/14 06:29:54;;;;;;;;;4.00;1.67;;;;;10.75;100.00;100919.81;5098389;27;45840;-77
2023/01/14 06:32:20;;;;;;;;;5.33;2.00;;;;;10.71;100.00;100905.19;5096783;27;45390;-75
2023/01/14 06:34:45;;;;;;;;;2.00;1.00;;;;;10.66;100.00;100903.06;5101546;27;46360;-76
2023/01/14 06:37:10;;;;;;;;;4.00;1.33;;;;;10.75;100.00;100911.00;5101811;27;45309;-76
2023/01/14 06:39:35;;;;;;;;;2.00;1.00;;;;;10.76;100.00;100918.81;5102194;27;45368;-74
2023/01/14 06:42:01;;;;;;;;;1.00;1.00;;;;;10.69;100.00;100889.41;5100363;27;45487;-76
2023/01/14 06:44:27;;;;;;;;;1.00;1.00;;;;;10.64;100.00;100886.44;5101550;27;46112;-74
2023/01/14 06:46:53;;;;;;;;;1.33;1.33;;;;;10.73;100.00;100889.91;5083109;27;45382;-74
2023/01/14 06:49:18;;;;;;;;;4.33;2.00;;;;;10.67;100.00;100870.16;5101756;27;45387;-75
2023/01/14 06:51:43;;;;;;;;;2.00;2.00;;;;;10.64;100.00;100854.53;5101482;27;45615;-74
2023/01/14 06:54:09;;;;;;;;;2.00;1.00;;;;;10.66;100.00;100859.69;5101865;27;45301;-75
2023/01/14 06:56:34;;;;;;;;;3.00;3.00;;;;;10.67;100.00;100856.88;5101323;27;45355;-75
2023/01/14 06:58:59;;;;;;;;;3.33;2.00;;;;;10.65;100.00;100856.19;5101617;27;45309;-74
2023/01/14 07:01:25;;;;;;;;;2.00;2.00;;;;;10.63;100.00;100852.91;5100210;27;46305;-74
2023/01/14 07:03:51;;;;;;;;;2.00;2.00;;;;;10.70;100.00;100864.50;5101372;27;46138;-75
2023/01/14 07:06:16;;;;;;;;;2.00;1.67;;;;;10.72;100.00;100853.69;5098580;27;45317;-76
2023/01/14 07:08:41;;;;;;;;;1.00;1.00;;;;;10.74;100.00;100849.00;5101550;27;45372;-74
2023/01/14 07:11:07;;;;;;;;;4.00;2.00;;;;;10.71;100.00;100838.72;5099826;27;46194;-77
2023/01/14 07:13:33;;;;;;;;;2.33;0.33;;;;;10.50;100.00;100786.97;5101451;27;45237;-77
2023/01/14 07:15:59;;;;;;;;;1.33;1.00;;;;;10.61;100.00;100791.09;5082847;27;45395;-73
2023/01/14 07:18:28;;;;;;;;;2.33;2.00;;;;;10.76;100.00;100814.28;5101409;27;45338;-75
2023/01/14 07:20:57;;;;;;;;;3.33;1.67;;;;;10.76;100.00;100807.13;5101021;27;45321;-77
2023/01/14 07:23:23;;;;;;;;;2.33;2.33;;;;;10.76;100.00;100814.28;5101080;27;45451;-76
2023/01/14 07:25:49;;;;;;;;;2.00;2.00;;;;;10.73;100.00;100808.31;5100698;27;45313;-77
2023/01/14 07:28:14;;;;;;;;;4.00;2.00;;;;;10.69;100.00;100793.69;5100517;27;45476;-76
2023/01/14 07:30:39;;;;;;;;;3.00;2.00;;;;;10.74;100.00;100798.50;5100777;27;45356;-76
2023/01/14 07:33:05;;;;;;;;;2.33;1.00;;;;;10.47;100.00;100745.66;5099560;27;47435;-77
2023/01/14 07:35:30;;;;;;;;;2.67;2.00;;;;;10.76;100.00;100801.81;5100688;27;45491;-77
2023/01/14 07:37:57;;;;;;;;;4.00;2.67;;;;;10.83;100.00;100793.97;5099834;27;45326;-78
2023/01/14 07:40:23;;;;;;;;;2.00;2.00;;;;;10.82;100.00;100782.53;5082067;27;47431;-75
2023/01/14 07:42:54;;;;;;;;;1.33;1.00;;;;;10.84;100.00;100779.69;5094511;27;45463;-78
2023/01/14 07:45:19;;;;;;;;;1.00;1.00;;;;;10.85;100.00;100779.53;5097299;27;46016;-78
2023/01/14 07:47:44;;;;;;;;;2.67;1.33;;;;;10.83;100.00;100768.22;5099187;27;45522;-77
2023/01/14 07:50:10;;;;;;;;;1.67;1.67;;;;;10.68;100.00;100736.22;5078135;27;46012;-77
2023/01/14 07:52:35;;;;;;;;;1.00;1.00;;;;;10.94;100.00;100771.47;5086068;27;46106;-77
2023/01/14 07:55:00;;;;;;;;;2.67;1.67;;;;;10.87;100.00;100742.13;5086372;27;45251;-78
2023/01/14 07:57:26;;;;;;;;;3.00;1.00;;;;;11.01;100.00;100774.28;5063598;27;45295;-80
2023/01/14 07:59:51;;;;;;;;;1.00;1.00;;;;;11.01;100.00;100764.44;5099407;27;45492;-76
2023/01/14 08:02:16;;;;;;;;;0.67;0.67;;;;;10.94;100.00;100748.38;5100475;27;45509;-76
2023/01/14 08:04:42;;;;;;;;;2.00;2.00;;;;;10.94;100.00;100736.91;5100596;27;45366;-76
2023/01/14 08:07:08;;;;;;;;;2.67;2.67;;;;;11.07;100.00;100757.59;5082145;27;45819;-79
2023/01/14 08:09:34;;;;;;;;;1.00;1.00;;;;;10.97;100.00;100736.56;5100430;27;45457;-80
2023/01/14 08:12:00;;;;;;;;;3.00;1.67;;;;;11.09;100.00;100739.63;5100024;27;45385;-79
2023/01/14 08:14:25;;;;;;;;;2.67;0.00;;;;;11.01;100.00;100729.88;5081925;27;46055;-79
2023/01/14 08:16:50;;;;;;;;;4.00;2.33;;;;;11.02;100.00;100731.56;5098864;27;45288;-78
2023/01/14 08:19:17;;;;;;;;;3.00;1.00;;;;;11.01;100.00;100705.13;5096518;27;45325;-78
2023/01/14 08:21:42;;;;;;;;;0.67;0.00;;;;;11.07;100.00;100723.84;5096655;27;45355;-79
2023/01/14 08:24:08;;;;;;;;;2.67;2.67;;;;;11.06;100.00;100708.91;5100361;27;45279;-79
2023/01/14 08:26:33;;;;;;;;;1.33;1.33;;;;;11.10;100.00;100709.34;5099982;27;45273;-79
2023/01/14 08:28:59;;;;;;;;;1.00;1.00;;;;;11.07;100.00;100709.72;5098535;27;46038;-78
2023/01/14 08:31:24;;;;;;;;;1.33;1.33;;;;;11.08;100.00;100690.91;5099261;27;46653;-79
2023/01/14 08:33:49;;;;;;;;;3.00;3.00;;;;;11.04;100.00;100691.47;5094993;27;45421;-79
2023/01/14 08:36:17;;;;;;;;;2.00;2.00;;;;;11.08;100.00;100698.09;5087313;27;45195;-77
2023/01/14 08:38:48;;;;;;;;;2.33;1.33;;;;;11.00;100.00;100672.38;5080908;27;47492;-78
2023/01/14 08:41:15;;;;;;;;;2.00;1.00;;;;;11.06;100.00;100687.63;5096651;27;46185;-78
2023/01/14 08:43:41;;;;;;;;;3.33;3.33;;;;;11.05;100.00;100693.13;5097895;27;45528;-77
2023/01/14 08:46:07;;;;;;;;;1.00;1.00;;;;;11.04;100.00;100684.31;5099212;27;45457;-77
2023/01/14 08:48:33;;;;;;;;;3.00;2.00;;;;;10.97;100.00;100678.88;5098465;27;47465;-77
2023/01/14 08:51:04;;;;;;;;;1.00;1.00;;;;;10.98;100.00;100683.19;5099287;27;45352;-77
2023/01/14 08:53:31;;;;;;;;;1.00;1.00;;;;;10.98;100.00;100679.69;5099774;27;45708;-77
2023/01/14 08:55:58;;;;;;;;;2.33;1.33;;;;;10.96;100.00;100666.56;5099450;27;45307;-78
2023/01/14 08:58:25;;;;;;;;;2.00;2.00;;;;;10.99;100.00;100678.72;5098342;27;47512;-77
2023/01/14 09:01:00;;;;;;;;;2.00;2.00;;;;;11.04;100.00;100696.81;5099473;27;45379;-78
2023/01/14 09:03:27;;;;;;;;;3.00;2.00;;;;;10.99;100.00;100671.53;5081290;27;45450;-78
2023/01/14 09:05:57;;;;;;;;;2.33;1.00;;;;;11.05;100.00;100701.09;5068056;27;45363;-77
2023/01/14 09:19:23;;;;;;;;;3.00;3.00;;;;;11.06;100.00;100658.38;5099656;27;45255;-77
2023/01/14 09:21:49;;;;;;;;;2.67;2.67;;;;;11.08;100.00;100652.88;5080652;27;47946;-76
2023/01/14 09:24:14;;;;;;;;;3.67;2.00;;;;;11.21;100.00;100658.41;5081252;27;45880;-77
2023/01/14 09:26:39;;;;;;;;;2.00;1.67;;;;;11.18;100.00;100634.00;5099123;27;45344;-77
2023/01/14 09:29:05;;;;;;;;;3.33;3.00;;;;;11.22;100.00;100619.31;5099307;27;46436;-76
2023/01/14 09:31:30;;;;;;;;;4.33;2.00;;;;;11.27;100.00;100613.44;5099175;27;46016;-77
2023/01/14 09:33:55;;;;;;;;;2.67;2.67;;;;;11.37;100.00;100600.69;5097874;27;45441;-77
2023/01/14 09:36:20;;;;;;;;;3.00;2.00;;;;;11.40;100.00;100618.97;5099428;27;45430;-78
2023/01/14 09:38:46;;;;;;;;;2.00;2.00;;;;;11.39;100.00;100621.81;5080559;27;46085;-77
2023/01/14 09:41:23;;;;;;;;;3.00;3.00;;;;;11.41;100.00;100628.63;5099114;27;46017;-76
2023/01/14 09:43:49;;;;;;;;;1.67;1.00;;;;;11.42;100.00;100634.75;5098952;27;45346;-77
2023/01/14 09:46:14;;;;;;;;;3.00;2.00;;;;;11.33;100.00;100631.34;5099215;27;45227;-78
2023/01/14 09:48:39;;;;;;;;;3.00;2.00;;;;;11.40;100.00;100629.59;5099101;27;45569;-77
2023/01/14 09:51:40;;;;;;;;;1.67;1.67;;;;;11.43;100.00;100641.75;5081299;27;47370;-77
2023/01/14 09:54:17;;;;;;;;;2.67;2.00;;;;;11.41;100.00;100641.09;5102593;27;45516;-77
2023/01/14 09:56:53;;;;;;;;;2.00;2.00;;;;;11.42;100.00;100638.25;5102618;27;45275;-78
2023/01/14 09:59:42;;;;;;;;;3.33;2.00;;;;;11.42;100.00;100627.59;5102229;27;46123;-77
2023/01/14 10:02:18;;;;;;;;;3.00;3.00;;;;;11.39;100.00;100624.47;5064548;27;48205;-77
2023/01/14 10:05:18;;;;;;;;;2.00;2.00;;;;;11.46;100.00;100612.91;5081664;27;45379;-77
2023/01/14 10:07:44;;;;;;;;;2.00;2.00;;;;;11.47;100.00;100603.09;5101997;27;45246;-78
2023/01/14 10:10:26;;;;;;;;;3.67;2.00;;;;;11.53;100.00;100618.34;5083556;27;46564;-76
2023/01/14 10:13:01;;;;;;;;;4.33;2.67;;;;;11.55;100.00;100605.66;5101933;27;45440;-77
2023/01/14 10:15:40;;;;;;;;;3.33;3.00;;;;;11.59;100.00;100612.25;5101349;27;45439;-78
2023/01/14 10:18:28;;;;;;;;;3.33;3.33;;;;;11.62;100.00;100598.59;5071295;27;45263;-76
2023/01/14 10:20:57;;;;;;;;;2.33;2.33;;;;;11.60;100.00;100602.44;5100240;27;46977;-77
2023/01/14 10:23:33;;;;;;;;;4.00;2.67;;;;;11.68;100.00;100620.16;5102194;27;46100;-75
2023/01/14 10:26:01;;;;;;;;;1.67;1.67;;;;;11.73;100.00;100601.78;5101382;27;45390;-76
2023/01/14 10:28:28;;;;;;;;;2.00;2.00;;;;;11.68;100.00;100573.09;5100689;27;45186;-76
2023/01/14 10:30:58;;;;;;;;;1.33;1.33;;;;;11.77;100.00;100591.59;5101680;27;45610;-77
2023/01/14 10:33:23;;;;;;;;;2.00;2.00;;;;;11.73;100.00;100569.84;5101312;27;46332;-77
2023/01/14 10:35:55;;;;;;;;;2.00;2.00;;;;;11.73;100.00;100572.50;5083340;27;45338;-76
2023/01/14 10:38:24;;;;;;;;;2.67;2.00;;;;;11.83;100.00;100572.22;5101868;27;45348;-77
2023/01/14 10:40:52;;;;;;;;;2.67;2.67;;;;;11.85;100.00;100579.00;5082866;27;46115;-76
2023/01/14 10:43:42;;;;;;;;;2.00;0.67;;;;;11.92;100.00;100573.78;5100861;27;46103;-75
2023/01/14 10:46:17;;;;;;;;;3.00;3.00;;;;;11.91;100.00;100564.13;5071976;28;45363;-77
2023/01/14 10:49:11;;;;;;;;;2.67;2.67;;;;;11.94;100.00;100566.41;5085742;27;45405;-77
2023/01/14 10:51:47;;;;;;;;;2.67;2.00;;;;;11.93;100.00;100555.94;5101076;27;45443;-77
2023/01/14 10:54:20;;;;;;;;;2.67;2.67;;;;;11.95;100.00;100551.25;5081561;27;47255;-78
2023/01/14 10:56:52;;;;;;;;;2.00;2.00;;;;;11.95;100.00;100544.09;5094341;27;45469;-76
2023/01/14 10:59:39;;;;;;;;;2.33;2.33;;;;;11.94;100.00;100557.63;5099222;27;45385;-77
2023/01/14 11:02:05;;;;;;;;;3.00;3.00;;;;;11.91;100.00;100536.69;5101013;27;45397;-77
2023/01/14 11:04:33;;;;;;;;;6.00;4.00;;;;;11.87;100.00;100530.91;5095959;27;46091;-79
2023/01/14 11:07:09;;;;;;;;;3.33;2.33;;;;;11.90;100.00;100535.84;5092073;27;45219;-78
2023/01/14 11:09:36;;;;;;;;;2.33;2.00;;;;;11.87;100.00;100515.75;5101329;27;45432;-78
2023/01/14 11:12:03;;;;;;;;;5.00;5.00;;;;;11.83;100.00;100508.31;5098995;27;45245;-79
2023/01/14 11:14:35;;;;;;;;;4.00;4.00;;;;;11.95;100.00;100520.13;5101126;27;45398;-78
2023/01/14 11:17:20;;;;;;;;;1.00;1.00;;;;;11.90;100.00;100511.88;5101174;27;45315;-77
2023/01/14 11:19:46;;;;;;;;;5.00;3.33;;;;;11.89;100.00;100504.91;5094727;27;45457;-77
2023/01/14 11:22:12;;;;;;;;;3.00;3.00;;;;;11.92;100.00;100509.88;5098890;27;45402;-77
2023/01/14 11:24:40;;;;;;;;;3.67;3.67;;;;;11.95;100.00;100498.00;5096731;27;46259;-79
2023/01/14 11:27:19;;;;;;;;;3.33;3.33;;;;;11.87;100.00;100482.97;5100861;27;45378;-78
2023/01/14 11:29:53;;;;;;;;;4.00;3.00;;;;;11.91;100.00;100492.22;5101494;27;45277;-79
2023/01/14 11:32:24;;;;;;;;;3.33;3.33;;;;;11.94;100.00;100477.72;5101157;27;45322;-78
2023/01/14 11:34:54;;;;;;;;;1.33;1.33;;;;;11.93;100.00;100479.53;5100843;27;45395;-78
2023/01/14 11:37:23;;;;;;;;;3.00;3.00;;;;;11.93;100.00;100446.75;5082603;27;47040;-78
2023/01/14 11:39:57;;;;;;;;;4.00;4.00;;;;;11.92;100.00;100456.59;5100872;27;45547;-79
2023/01/14 11:42:25;;;;;;;;;3.00;3.00;;;;;11.98;100.00;100447.03;5100989;27;45340;-77
2023/01/14 11:45:03;;;;;;;;;1.67;1.67;;;;;11.96;100.00;100441.88;5075569;27;48372;-79
2023/01/14 11:47:29;;;;;;;;;4.33;3.00;;;;;11.88;100.00;100412.69;5098719;27;45439;-80
2023/01/14 11:50:15;;;;;;;;;2.00;2.00;;;;;11.95;100.00;100402.13;5098861;27;45285;-78
2023/01/14 11:52:40;;;;;;;;;3.00;3.00;;;;;11.94;100.00;100387.16;5093571;27;45391;-80
2023/01/14 11:55:16;;;;;;;;;4.33;3.33;;;;;12.00;100.00;100395.19;5089479;27;45345;-77
2023/01/14 11:57:43;;;;;;;;;2.00;2.00;;;;;12.00;100.00;100381.06;5086999;27;45296;-78
2023/01/14 12:00:11;;;;;;;;;3.00;3.00;;;;;12.00;100.00;100395.19;5092976;27;45380;-78